Time;durP1;ratioP1;P1;durP2;ratioP2;P2;SDS_P1;SDS_P2;PMS_P1;PMS_P2;Temp;Humidity;BMP_temperature;BMP_pressure;BME280_temperature;BME280_humidity;BME280_pressure;Samples;Min_cycle;Max_cycle;Signal;HPM_P1;HPM_P2
2022/04/08 00:02:05;;;;;;;12.45;8.25;;;;;;;8.56;93.31;98450.91;4502235;31;20163;-72
2022/04/08 00:04:32;;;;;;;31.08;15.15;;;;;;;8.53;93.34;98459.72;4501090;31;20151;-72
2022/04/08 00:07:00;;;;;;;28.30;16.75;;;;;;;8.50;93.31;98462.44;4502128;31;20163;-72
2022/04/08 00:09:28;;;;;;;32.55;18.10;;;;;;;8.46;93.59;98476.59;4501913;31;20091;-72
2022/04/08 00:11:55;;;;;;;33.83;19.92;;;;;;;8.29;95.54;98474.50;4501945;31;20473;-72
2022/04/08 00:14:23;;;;;;;29.15;15.75;;;;;;;8.31;93.58;98491.06;4502062;31;20107;-72
2022/04/08 00:16:50;;;;;;;26.95;14.48;;;;;;;8.30;95.07;98484.09;4501980;31;20122;-72
2022/04/08 00:19:18;;;;;;;23.62;13.95;;;;;;;8.21;95.50;98478.28;4501687;31;20071;-72
2022/04/08 00:21:48;;;;;;;19.05;11.38;;;;;;;8.19;95.62;98475.69;4501808;31;20427;-72
2022/04/08 00:24:17;;;;;;;18.42;10.38;;;;;;;8.17;96.26;98480.16;4502006;31;20080;-72
2022/04/08 00:26:46;;;;;;;13.48;8.68;;;;;;;8.29;94.94;98473.62;4501781;31;20489;-72
2022/04/08 00:29:16;;;;;;;16.83;9.90;;;;;;;8.28;94.51;98469.31;4501838;31;20147;-72
2022/04/08 00:31:43;;;;;;;17.20;10.32;;;;;;;8.41;93.58;98475.91;4501820;31;20107;-72
2022/04/08 00:34:11;;;;;;;59.80;30.40;;;;;;;8.23;96.15;98487.81;4501647;31;20134;-72
2022/04/08 00:36:38;;;;;;;50.55;27.10;;;;;;;8.24;96.28;98491.31;4501738;31;20407;-72
2022/04/08 00:39:05;;;;;;;39.05;20.33;;;;;;;8.24;97.34;98493.94;4501817;31;20083;-72
2022/04/08 00:41:33;;;;;;;32.95;19.08;;;;;;;8.29;97.33;98490.25;4501608;31;20742;-72
2022/04/08 00:44:00;;;;;;;32.88;20.25;;;;;;;8.37;96.49;98489.97;4501793;31;20096;-72
2022/04/08 00:46:27;;;;;;;32.92;19.12;;;;;;;8.43;96.15;98476.69;4501901;31;20095;-72
2022/04/08 00:48:54;;;;;;;21.80;14.02;;;;;;;8.49;95.84;98471.25;4501756;31;20483;-72
2022/04/08 00:51:22;;;;;;;17.55;9.80;;;;;;;8.56;95.81;98474.53;4501724;31;20084;-72
2022/04/08 00:53:49;;;;;;;15.98;9.85;;;;;;;8.73;93.18;98489.69;4501706;31;20123;-72
2022/04/08 00:56:19;;;;;;;12.70;7.07;;;;;;;8.78;93.99;98493.00;4501667;31;20203;-72
2022/04/08 00:58:46;;;;;;;8.07;6.18;;;;;;;8.81;93.12;98495.53;4501527;31;20076;-72
2022/04/08 01:01:13;;;;;;;8.10;5.87;;;;;;;8.85;92.07;98487.47;4501610;31;20122;-72
2022/04/08 01:03:41;;;;;;;11.18;6.68;;;;;;;8.84;92.43;98477.03;4501730;31;20103;-72
2022/04/08 01:06:08;;;;;;;9.63;6.20;;;;;;;8.73;94.19;98473.94;4501664;31;20125;-72
2022/04/08 01:08:35;;;;;;;8.65;5.80;;;;;;;8.56;94.79;98469.28;4501691;31;20477;-72
2022/04/08 01:11:03;;;;;;;11.05;5.85;;;;;;;8.68;90.99;98475.84;4501623;31;20518;-72
2022/04/08 01:13:30;;;;;;;12.93;5.93;;;;;;;8.61;93.13;98476.06;4501642;31;20092;-72
2022/04/08 01:15:57;;;;;;;8.50;5.43;;;;;;;8.47;94.09;98480.94;4501367;31;20168;-72
2022/04/08 01:18:25;;;;;;;8.68;5.37;;;;;;;8.45;93.62;98495.03;4501532;31;20203;-72
2022/04/08 01:20:52;;;;;;;7.90;4.87;;;;;;;8.36;95.27;98499.63;4501479;31;20080;-72
2022/04/08 01:23:19;;;;;;;7.72;5.37;;;;;;;8.32;96.94;98502.41;4501424;31;20126;-72
2022/04/08 01:25:46;;;;;;;5.90;5.18;;;;;;;8.31;97.24;98514.69;4501482;31;20656;-72
2022/04/08 01:28:13;;;;;;;11.27;5.22;;;;;;;8.27;96.96;98517.44;4501522;31;20490;-72
2022/04/08 01:30:40;;;;;;;7.15;4.68;;;;;;;8.25;96.80;98519.25;4501680;31;20084;-72
2022/04/08 01:33:08;;;;;;;7.30;4.43;;;;;;;8.40;93.88;98526.66;4501601;31;20092;-72
2022/04/08 01:35:35;;;;;;;9.38;5.00;;;;;;;8.44;93.25;98536.13;4501535;31;20459;-72
2022/04/08 01:38:02;;;;;;;6.18;4.32;;;;;;;8.50;94.03;98541.19;4501443;31;20439;-72
2022/04/08 01:40:30;;;;;;;3.97;3.58;;;;;;;8.55;94.68;98535.78;4501305;31;20111;-72
2022/04/08 01:42:57;;;;;;;4.57;4.15;;;;;;;8.64;92.33;98548.62;4501588;31;20154;-72
2022/04/08 01:45:24;;;;;;;4.80;4.10;;;;;;;8.67;91.43;98563.41;4501531;31;20126;-72
2022/04/08 01:47:52;;;;;;;4.62;3.58;;;;;;;8.63;94.61;98564.44;4501205;31;20140;-72
2022/04/08 01:50:20;;;;;;;8.48;4.32;;;;;;;8.67;93.77;98573.91;4501297;31;20087;-72
2022/04/08 01:52:48;;;;;;;8.20;4.10;;;;;;;8.75;91.96;98580.63;4501431;31;20103;-72
2022/04/08 01:55:15;;;;;;;6.90;4.25;;;;;;;8.83;91.22;98580.34;4501295;31;20102;-72
2022/04/08 01:57:43;;;;;;;6.78;4.25;;;;;;;8.94;90.36;98588.75;4501091;31;20528;-72
2022/04/08 02:00:11;;;;;;;10.93;4.50;;;;;;;9.00;91.69;98592.91;4501263;31;20092;-72
2022/04/08 02:02:40;;;;;;;6.45;3.92;;;;;;;9.05;90.67;98584.00;4501101;31;20407;-72
2022/04/08 02:05:08;;;;;;;11.82;4.57;;;;;;;8.98;93.25;98574.59;4501310;31;20107;-72
2022/04/08 02:07:35;;;;;;;8.13;3.90;;;;;;;8.83;94.59;98570.75;4501035;31;20451;-72
2022/04/08 02:10:04;;;;;;;5.60;4.32;;;;;;;8.93;94.07;98587.00;4501067;31;20441;-72
2022/04/08 02:12:31;;;;;;;5.03;4.12;;;;;;;8.97;91.97;98604.38;4501045;31;20425;-72
2022/04/08 02:14:58;;;;;;;11.20;4.50;;;;;;;8.97;91.60;98607.00;4500883;31;20099;-72
2022/04/08 02:17:25;;;;;;;6.93;4.12;;;;;;;8.97;90.65;98624.53;4501049;31;20087;-72
2022/04/08 02:19:53;;;;;;;6.93;3.90;;;;;;;9.02;90.54;98618.25;4500716;31;20108;-72
2022/04/08 02:22:20;;;;;;;6.87;3.90;;;;;;;9.12;90.37;98631.03;4500786;31;20100;-72
2022/04/08 02:24:49;;;;;;;11.70;3.90;;;;;;;9.24;91.60;98633.28;4500789;31;20134;-72
2022/04/08 02:27:17;;;;;;;7.40;3.67;;;;;;;9.26;91.46;98623.56;4500940;31;20175;-72
2022/04/08 02:29:45;;;;;;;7.43;3.78;;;;;;;9.24;90.23;98630.66;4502838;31;20096;-72
2022/04/08 02:32:12;;;;;;;4.35;3.70;;;;;;;9.29;89.68;98618.19;4502910;31;20142;-72
2022/04/08 02:34:39;;;;;;;8.48;3.87;;;;;;;9.25;89.24;98608.69;4502704;31;20091;-72
2022/04/08 02:37:07;;;;;;;6.37;4.10;;;;;;;9.30;88.54;98604.16;4502688;31;20087;-72
2022/04/08 02:39:34;;;;;;;6.53;3.62;;;;;;;9.21;88.58;98620.22;4502991;31;20107;-72
2022/04/08 02:42:02;;;;;;;5.40;3.55;;;;;;;9.22;89.02;98622.81;4502510;31;20144;-72
2022/04/08 02:44:30;;;;;;;5.30;3.80;;;;;;;9.20;89.06;98619.38;4502633;31;20446;-72
2022/04/08 02:46:58;;;;;;;5.65;4.32;;;;;;;9.15;89.28;98644.97;4502690;31;20091;-72
2022/04/08 02:49:26;;;;;;;8.98;3.72;;;;;;;9.12;89.21;98638.94;4502605;31;20095;-72
2022/04/08 02:51:54;;;;;;;10.05;4.20;;;;;;;9.05;89.38;98660.19;4502895;31;20096;-72
2022/04/08 02:54:21;;;;;;;6.93;3.83;;;;;;;9.08;89.68;98667.97;4502726;31;20470;-72
2022/04/08 02:56:48;;;;;;;9.70;4.20;;;;;;;9.07;89.62;98674.09;4502636;31;20110;-72
2022/04/08 02:59:15;;;;;;;5.28;3.70;;;;;;;9.14;89.22;98674.75;4502566;31;20160;-72
2022/04/08 03:01:42;;;;;;;5.28;3.90;;;;;;;9.20;89.10;98676.34;4502394;31;20107;-72
2022/04/08 03:04:10;;;;;;;6.35;4.37;;;;;;;9.20;89.06;98684.22;4502474;31;20107;-72
2022/04/08 03:06:37;;;;;;;7.57;4.43;;;;;;;9.19;89.15;98708.78;4502665;31;20138;-72
2022/04/08 03:09:05;;;;;;;9.13;4.65;;;;;;;9.15;89.58;98707.16;4502412;31;20122;-72
2022/04/08 03:11:33;;;;;;;8.43;5.10;;;;;;;9.14;89.90;98715.94;4502470;31;20475;-72
2022/04/08 03:14:02;;;;;;;9.82;5.78;;;;;;;9.09;90.10;98708.22;4502422;31;20111;-72
2022/04/08 03:16:29;;;;;;;7.47;5.22;;;;;;;9.07;90.56;98715.28;4502307;31;20084;-72
2022/04/08 03:18:58;;;;;;;13.30;5.57;;;;;;;9.01;90.40;98715.47;4502312;31;20538;-72
2022/04/08 03:21:27;;;;;;;12.77;5.62;;;;;;;8.94;90.95;98719.22;4502077;31;20099;-72
2022/04/08 03:23:54;;;;;;;12.07;6.10;;;;;;;8.88;91.73;98707.16;4502266;31;20129;-72
2022/04/08 03:26:21;;;;;;;12.75;5.53;;;;;;;8.86;91.92;98722.94;4502177;31;20424;-72
2022/04/08 03:28:49;;;;;;;8.40;5.72;;;;;;;8.84;92.31;98729.16;4502256;31;20502;-72
2022/04/08 03:31:16;;;;;;;12.88;5.25;;;;;;;8.83;92.04;98732.69;4502220;31;20458;-72
2022/04/08 03:33:43;;;;;;;10.57;4.90;;;;;;;8.83;91.03;98727.44;4502107;31;20147;-72
2022/04/08 03:36:10;;;;;;;5.10;3.83;;;;;;;9.03;88.45;98725.03;4502261;31;20083;-72
2022/04/08 03:38:37;;;;;;;4.45;2.97;;;;;;;9.31;86.35;98739.91;4501645;31;20100;-72
2022/04/08 03:41:05;;;;;;;6.57;2.67;;;;;;;9.84;81.75;98744.25;4501531;31;20503;-72
2022/04/08 03:43:32;;;;;;;2.40;2.20;;;;;;;10.42;78.08;98753.53;4502339;31;20505;-72
2022/04/08 03:45:59;;;;;;;2.85;1.85;;;;;;;10.85;75.60;98757.19;4502072;31;20079;-72
2022/04/08 03:48:27;;;;;;;1.50;1.40;;;;;;;11.09;75.00;98755.34;4502140;31;20110;-72
2022/04/08 03:50:54;;;;;;;3.17;1.65;;;;;;;11.39;73.13;98753.25;4501995;31;20119;-72
2022/04/08 03:53:21;;;;;;;2.20;1.37;;;;;;;11.51;73.08;98766.84;4502016;31;20157;-72
2022/04/08 03:55:48;;;;;;;1.90;1.10;;;;;;;11.59;73.00;98780.56;4501949;31;20107;-72
2022/04/08 03:58:16;;;;;;;1.83;1.23;;;;;;;11.58;73.17;98778.88;4501959;31;20160;-72
2022/04/08 04:00:43;;;;;;;3.50;0.90;;;;;;;11.64;73.13;98786.53;4501926;31;20095;-72
2022/04/08 04:03:10;;;;;;;12.50;0.70;;;;;;;11.72;73.11;98781.78;4501861;31;20766;-72
2022/04/08 04:05:43;;;;;;;1.48;0.50;;;;;;;11.77;73.31;98782.47;4502611;31;20151;-72
2022/04/08 04:08:20;;;;;;;0.70;0.40;;;;;;;11.75;74.10;98781.66;4502807;31;20174;-72
2022/04/08 04:10:48;;;;;;;1.85;0.35;;;;;;;11.71;74.27;98773.00;4503034;31;20092;-72
2022/04/08 04:13:15;;;;;;;1.27;0.32;;;;;;;11.65;74.53;98783.81;4502847;31;20239;-72
2022/04/08 04:15:43;;;;;;;1.42;0.30;;;;;;;11.61;75.08;98789.28;4502739;31;20080;-70
2022/04/08 04:18:10;;;;;;;2.45;0.60;;;;;;;11.53;74.63;98807.22;4502790;31;20103;-69
2022/04/08 04:20:37;;;;;;;0.30;0.25;;;;;;;11.58;72.56;98805.25;4502663;31;20120;-69
2022/04/08 04:23:04;;;;;;;1.92;0.30;;;;;;;11.56;72.19;98788.63;4502818;31;20143;-70
2022/04/08 04:25:31;;;;;;;0.57;0.30;;;;;;;11.59;70.02;98799.94;4502816;31;20444;-69
2022/04/08 04:27:59;;;;;;;2.05;0.57;;;;;;;11.62;69.30;98806.84;4502684;31;20088;-70
2022/04/08 04:30:27;;;;;;;4.05;0.50;;;;;;;11.58;68.15;98800.81;4502575;31;20119;-69
2022/04/08 04:32:56;;;;;;;1.62;0.28;;;;;;;11.60;68.04;98817.47;4502585;31;20111;-69
2022/04/08 04:35:23;;;;;;;1.60;0.32;;;;;;;11.61;68.01;98800.69;4509210;31;20211;-69
2022/04/08 04:37:51;;;;;;;1.10;0.40;;;;;;;11.59;68.30;98823.66;4502243;31;20189;-69
2022/04/08 04:40:18;;;;;;;2.50;0.30;;;;;;;11.60;67.70;98813.97;4508554;31;20179;-69
2022/04/08 04:42:45;;;;;;;3.08;0.22;;;;;;;11.58;67.07;98826.34;4518124;31;20734;-70
2022/04/08 04:45:13;;;;;;;8.48;0.30;;;;;;;11.64;64.54;98813.78;4518574;31;20087;-70
2022/04/08 04:47:41;;;;;;;5.22;0.30;;;;;;;11.73;63.27;98836.25;4518459;31;20103;-70
2022/04/08 04:50:08;;;;;;;1.20;0.47;;;;;;;11.79;61.89;98820.19;4517766;31;20092;-70
2022/04/08 04:52:35;;;;;;;2.25;0.50;;;;;;;11.83;61.52;98823.56;4511462;31;20602;-70
2022/04/08 04:55:04;;;;;;;1.75;0.45;;;;;;;11.87;58.72;98839.25;4502366;31;20109;-71
2022/04/08 04:57:31;;;;;;;1.37;0.40;;;;;;;11.96;56.77;98862.59;4502410;31;20079;-71
2022/04/08 04:59:59;;;;;;;3.47;0.43;;;;;;;12.03;55.92;98859.72;4487544;31;20148;-70
2022/04/08 05:02:26;;;;;;;2.17;0.50;;;;;;;11.99;55.36;98858.13;4502297;31;20634;-71
2022/04/08 05:04:53;;;;;;;0.95;0.52;;;;;;;11.97;54.26;98860.81;4501974;31;20095;-70
2022/04/08 05:07:20;;;;;;;3.15;0.30;;;;;;;11.99;54.40;98858.13;4502352;31;20087;-70
2022/04/08 05:09:47;;;;;;;4.57;0.52;;;;;;;11.96;52.91;98849.41;4502052;31;20479;-71
2022/04/08 05:12:15;;;;;;;2.85;0.57;;;;;;;12.03;52.90;98872.91;4487222;31;20104;-71
2022/04/08 05:14:42;;;;;;;1.45;0.62;;;;;;;12.02;52.18;98889.69;4502138;31;20075;-70
2022/04/08 05:17:09;;;;;;;5.75;0.60;;;;;;;12.00;52.44;98865.13;4501625;31;20509;-70
2022/04/08 05:19:37;;;;;;;1.52;0.65;;;;;;;12.00;51.79;98876.53;4501551;31;20703;-70
2022/04/08 05:22:04;;;;;;;1.37;0.35;;;;;;;12.05;50.38;98871.03;4486376;31;20169;-70
2022/04/08 05:24:31;;;;;;;0.62;0.50;;;;;;;12.08;50.77;98863.84;4501942;31;20478;-69
2022/04/08 05:26:58;;;;;;;3.20;0.50;;;;;;;12.11;49.39;98874.28;4501579;31;20198;-70
2022/04/08 05:29:26;;;;;;;7.68;0.90;;;;;;;12.16;48.57;98868.84;4510782;31;20091;-70
2022/04/08 05:31:53;;;;;;;5.15;0.88;;;;;;;12.19;48.39;98874.84;4515217;31;20091;-71
2022/04/08 05:34:20;;;;;;;0.93;0.50;;;;;;;12.24;47.85;98885.19;4516879;31;20158;-70
2022/04/08 05:36:47;;;;;;;1.65;0.30;;;;;;;12.18;49.68;98885.47;4517397;31;20094;-71
2022/04/08 05:39:15;;;;;;;6.80;0.68;;;;;;;12.02;49.74;98895.81;4517823;31;20107;-70
2022/04/08 05:41:42;;;;;;;3.37;0.80;;;;;;;12.03;47.49;98891.38;4517455;31;20099;-71
2022/04/08 05:44:09;;;;;;;0.47;0.40;;;;;;;12.07;48.00;98904.37;4517663;31;20109;-70
2022/04/08 05:46:36;;;;;;;4.43;0.80;;;;;;;12.11;46.42;98887.50;4517692;31;20482;-70
2022/04/08 05:49:04;;;;;;;7.70;1.15;;;;;;;12.12;46.28;98905.06;4517394;31;20117;-70
2022/04/08 05:51:31;;;;;;;8.10;3.33;;;;;;;12.14;44.72;98921.69;4503085;31;20170;-70
2022/04/08 05:54:07;;;;;;;2.28;1.30;;;;;;;12.12;45.39;98913.00;4514146;31;20074;-70
2022/04/08 05:56:35;;;;;;;3.85;1.50;;;;;;;12.13;45.31;98919.97;4508227;31;20080;-70
2022/04/08 05:59:02;;;;;;;1.80;1.10;;;;;;;12.13;46.14;98940.25;4508361;31;20248;-69
2022/04/08 06:01:29;;;;;;;2.75;0.60;;;;;;;12.17;45.16;98952.41;4507876;31;20104;-70
2022/04/08 06:03:57;;;;;;;0.90;0.40;;;;;;;12.25;44.79;98960.00;4510476;31;20765;-71
2022/04/08 06:06:24;;;;;;;5.97;0.80;;;;;;;12.29;44.47;98959.81;4508213;31;20114;-70
2022/04/08 06:08:51;;;;;;;3.37;1.92;;;;;;;12.25;43.66;98989.06;4501462;31;20162;-70
2022/04/08 06:11:18;;;;;;;3.67;1.02;;;;;;;12.23;44.69;98980.34;4500481;31;20104;-71
2022/04/08 06:13:48;;;;;;;5.05;1.37;;;;;;;12.08;48.11;98995.87;4500301;31;20852;-71
2022/04/08 06:16:16;;;;;;;8.00;1.08;;;;;;;11.83;47.89;98995.09;4502160;31;20079;-71
2022/04/08 06:18:44;;;;;;;4.15;1.65;;;;;;;11.67;49.68;99015.94;4502117;31;20114;-71
2022/04/08 06:21:11;;;;;;;3.87;0.77;;;;;;;11.27;54.79;99000.75;4509297;31;20127;-74
2022/04/08 06:23:38;;;;;;;6.15;1.10;;;;;;;11.16;50.65;98993.22;4509331;31;20118;-73
2022/04/08 06:26:05;;;;;;;3.10;1.40;;;;;;;11.27;49.94;98995.47;4509676;31;20123;-73
2022/04/08 06:28:32;;;;;;;1.50;0.40;;;;;;;11.46;50.52;98989.47;4515736;31;20096;-73
2022/04/08 06:30:59;;;;;;;3.83;0.95;;;;;;;11.74;47.15;98991.03;4502217;31;20095;-73
2022/04/08 06:33:27;;;;;;;5.00;0.90;;;;;;;12.01;45.94;98996.19;4501775;31;21121;-73
2022/04/08 06:35:54;;;;;;;9.00;0.85;;;;;;;12.12;45.29;98992.19;4501613;31;20777;-73
2022/04/08 06:38:21;;;;;;;2.78;0.85;;;;;;;12.32;44.31;98983.44;4502133;31;20100;-72
2022/04/08 06:40:48;;;;;;;2.90;0.62;;;;;;;12.48;44.66;98996.03;4502430;31;20100;-71
2022/04/08 06:43:15;;;;;;;2.05;0.50;;;;;;;12.46;46.95;98997.88;4504484;31;20095;-72
2022/04/08 06:45:42;;;;;;;1.37;0.60;;;;;;;12.23;46.82;99010.25;4502439;31;20083;-71
2022/04/08 06:48:10;;;;;;;5.30;0.95;;;;;;;12.32;46.09;99015.16;4502751;31;20192;-71
2022/04/08 06:50:37;;;;;;;6.12;0.47;;;;;;;12.56;45.27;99009.78;4503158;31;20130;-72
2022/04/08 06:53:04;;;;;;;2.40;0.50;;;;;;;12.84;44.43;99004.19;4488783;31;20114;-71
2022/04/08 06:55:32;;;;;;;5.93;0.68;;;;;;;13.19;43.22;99010.56;4503252;31;20114;-71
2022/04/08 06:58:02;;;;;;;3.08;0.40;;;;;;;13.28;42.41;99010.16;4503226;31;20111;-72
2022/04/08 07:00:31;;;;;;;4.07;0.85;;;;;;;13.18;42.45;99000.03;4503253;31;20088;-70
2022/04/08 07:02:59;;;;;;;3.72;0.85;;;;;;;13.05;42.16;99005.03;4504142;31;20087;-70
2022/04/08 07:05:28;;;;;;;2.35;0.93;;;;;;;12.94;43.14;99002.00;4504018;31;20098;-71
2022/04/08 07:07:56;;;;;;;1.48;0.52;;;;;;;12.47;49.16;98994.28;4502945;31;20125;-71
2022/04/08 07:10:24;;;;;;;2.42;0.68;;;;;;;12.32;46.53;99001.94;4502670;31;20180;-71
2022/04/08 07:12:51;;;;;;;1.00;0.68;;;;;;;12.40;46.21;98993.69;4508183;31;20122;-71
2022/04/08 07:15:19;;;;;;;2.25;0.77;;;;;;;12.44;44.48;99004.09;4518907;31;20114;-71
2022/04/08 07:17:46;;;;;;;2.05;0.57;;;;;;;12.58;44.58;99006.16;4518777;31;20171;-72
2022/04/08 07:20:16;;;;;;;3.05;1.00;;;;;;;12.95;42.63;99003.72;4518904;31;20133;-71
2022/04/08 07:22:46;;;;;;;5.03;0.85;;;;;;;13.40;41.85;99064.34;4518984;31;20467;-71
2022/04/08 07:25:14;;;;;;;9.43;0.95;;;;;;;13.40;41.86;99003.50;4518906;31;20125;-72
2022/04/08 07:27:52;;;;;;;9.02;0.73;;;;;;;13.36;42.10;99013.34;4519038;31;20088;-72
2022/04/08 07:30:21;;;;;;;2.28;0.70;;;;;;;13.30;41.05;99024.19;4504010;31;20130;-71
2022/04/08 07:32:54;;;;;;;4.95;1.30;;;;;;;13.56;41.66;99030.94;4502724;31;20114;-71
2022/04/08 07:35:23;;;;;;;3.97;1.20;;;;;;;13.89;39.75;99046.22;4502803;31;20857;-71
2022/04/08 07:37:51;;;;;;;3.70;0.68;;;;;;;14.04;40.21;99039.34;4502838;31;20155;-71
2022/04/08 07:40:19;;;;;;;4.57;1.65;;;;;;;14.05;40.37;99049.00;4502710;31;20159;-72
2022/04/08 07:42:46;;;;;;;7.68;1.58;;;;;;;14.00;39.14;99049.22;4502893;31;20084;-71
2022/04/08 07:45:14;;;;;;;6.60;2.10;;;;;;;13.99;39.63;99062.53;4488094;31;20087;-71
2022/04/08 07:47:41;;;;;;;5.43;1.90;;;;;;;13.88;38.99;99050.63;4502201;31;20458;-71
2022/04/08 07:50:10;;;;;;;6.10;1.67;;;;;;;13.81;38.45;99049.22;4510853;31;20709;-71
2022/04/08 07:52:38;;;;;;;8.00;2.33;;;;;;;13.72;37.71;99024.97;4515191;31;20133;-71
2022/04/08 07:55:07;;;;;;;2.53;1.50;;;;;;;13.72;37.57;99017.03;4518618;31;20087;-71
2022/04/08 07:57:45;;;;;;;5.60;1.45;;;;;;;13.69;37.87;99057.72;4518615;31;20100;-71
2022/04/08 08:00:14;;;;;;;4.80;1.73;;;;;;;14.00;37.79;99054.53;4514421;31;20111;-71
2022/04/08 08:02:43;;;;;;;6.40;0.50;;;;;;;14.61;36.55;99055.16;4508438;31;20124;-70
2022/04/08 08:05:11;;;;;;;2.62;0.40;;;;;;;14.85;35.24;99063.69;4511166;31;20489;-70
2022/04/08 08:07:48;;;;;;;5.85;0.98;;;;;;;14.75;34.22;99068.59;4509561;31;20092;-70
2022/04/08 08:10:21;;;;;;;4.43;2.53;;;;;;;14.55;33.63;99072.22;4508463;31;20174;-71
2022/04/08 08:12:49;;;;;;;2.05;0.60;;;;;;;14.50;34.12;99075.09;4507892;31;20118;-71
2022/04/08 08:15:18;;;;;;;4.78;1.05;;;;;;;14.46;33.65;99085.91;4509553;31;20636;-71
2022/04/08 08:17:46;;;;;;;4.62;1.02;;;;;;;14.46;33.99;99109.75;4510773;31;20104;-70
2022/04/08 08:20:16;;;;;;;0.65;0.57;;;;;;;14.53;34.64;99135.06;4509574;31;20167;-70
2022/04/08 08:22:44;;;;;;;3.37;0.70;;;;;;;14.76;34.74;99107.44;4509583;31;20091;-71
2022/04/08 08:25:12;;;;;;;5.95;0.70;;;;;;;14.96;34.41;99107.28;4517483;31;20091;-71
2022/04/08 08:27:42;;;;;;;2.97;1.30;;;;;;;15.05;34.00;99124.53;4508968;31;20443;-72
2022/04/08 08:30:11;;;;;;;4.05;0.50;;;;;;;14.85;33.57;99135.31;4516067;31;20130;-71
2022/04/08 08:32:40;;;;;;;3.28;0.60;;;;;;;14.81;33.68;99147.84;4518567;31;20105;-71
2022/04/08 08:35:08;;;;;;;2.17;0.60;;;;;;;14.80;33.65;99152.28;4518455;31;20095;-71
2022/04/08 08:37:36;;;;;;;3.70;0.70;;;;;;;14.54;34.58;99148.25;4511364;31;20123;-71
2022/04/08 08:40:05;;;;;;;3.53;0.70;;;;;;;14.47;34.05;99137.97;4509411;31;20771;-71
2022/04/08 08:42:36;;;;;;;2.25;0.60;;;;;;;14.55;34.24;99119.94;4509539;31;20618;-71
2022/04/08 08:45:04;;;;;;;1.15;0.62;;;;;;;14.88;34.47;99133.34;4501697;31;20755;-72
2022/04/08 08:47:32;;;;;;;7.45;0.70;;;;;;;15.42;34.02;99139.44;4501830;31;20095;-71
2022/04/08 08:50:00;;;;;;;3.17;0.93;;;;;;;15.51;33.83;99149.59;4501904;31;20100;-71
2022/04/08 08:52:28;;;;;;;0.70;0.52;;;;;;;15.37;33.12;99160.06;4500450;31;20079;-70
2022/04/08 08:54:56;;;;;;;3.72;1.02;;;;;;;15.50;33.50;99152.31;4501140;31;20117;-71
2022/04/08 08:57:23;;;;;;;2.35;0.70;;;;;;;15.88;32.55;99145.03;4500863;31;20093;-71
2022/04/08 08:59:52;;;;;;;3.15;0.50;;;;;;;16.23;32.93;99167.06;4501380;31;20157;-71
2022/04/08 09:02:21;;;;;;;3.78;0.88;;;;;;;15.91;32.15;99163.47;4500901;31;20108;-72
2022/04/08 09:04:51;;;;;;;6.05;0.70;;;;;;;15.51;35.95;99156.69;4487108;31;20119;-71
2022/04/08 09:07:27;;;;;;;2.97;0.62;;;;;;;15.28;37.58;99156.06;4501943;31;20088;-71
2022/04/08 09:09:57;;;;;;;2.37;0.52;;;;;;;15.45;36.01;99155.22;4502156;31;20244;-71
2022/04/08 09:12:27;;;;;;;2.65;0.50;;;;;;;15.79;34.93;99166.75;4501785;31;20738;-71
2022/04/08 09:14:57;;;;;;;1.58;0.57;;;;;;;15.91;32.43;99165.28;4501678;31;20163;-72
2022/04/08 09:17:26;;;;;;;1.60;0.40;;;;;;;16.05;33.15;99170.72;4501660;31;20100;-72
2022/04/08 09:19:56;;;;;;;7.80;0.88;;;;;;;16.42;32.13;99176.66;4501644;31;20182;-72
2022/04/08 09:22:29;;;;;;;1.50;0.60;;;;;;;16.33;31.65;99188.69;4501794;31;20098;-71
2022/04/08 09:25:10;;;;;;;1.25;0.50;;;;;;;16.02;31.83;99171.72;4502234;31;20166;-72
2022/04/08 09:27:39;;;;;;;7.50;1.10;;;;;;;15.54;33.65;99183.94;4501707;31;20138;-72
2022/04/08 09:30:08;;;;;;;1.05;0.40;;;;;;;15.56;34.33;99183.88;4501426;31;20138;-72
2022/04/08 09:32:36;;;;;;;0.60;0.50;;;;;;;15.87;32.81;99179.66;4502008;31;20092;-72
2022/04/08 09:35:04;;;;;;;0.93;0.45;;;;;;;16.33;31.24;99169.22;4501700;31;20407;-72
2022/04/08 09:37:31;;;;;;;0.52;0.40;;;;;;;16.42;31.12;99182.84;4500874;31;20095;-71
2022/04/08 09:40:03;;;;;;;1.65;0.35;;;;;;;16.36;30.86;99171.69;4501408;31;20127;-70
2022/04/08 09:42:45;;;;;;;7.37;1.23;;;;;;;16.32;30.64;99180.78;4501737;31;20106;-71
2022/04/08 09:45:14;;;;;;;3.22;1.25;;;;;;;16.29;30.27;99192.44;4501593;31;20178;-70
2022/04/08 09:47:41;;;;;;;7.87;0.90;;;;;;;16.22;31.06;99188.41;4501590;31;20133;-69
2022/04/08 09:50:10;;;;;;;1.95;0.55;;;;;;;16.37;30.58;99173.41;4503598;31;20103;-70
2022/04/08 09:52:39;;;;;;;0.50;0.50;;;;;;;16.57;30.04;99173.19;4501800;31;20128;-71
2022/04/08 09:55:07;;;;;;;2.03;0.70;;;;;;;16.68;29.40;99177.91;4501613;31;20092;-71
2022/04/08 09:57:39;;;;;;;3.35;0.50;;;;;;;16.97;31.08;99186.91;4501608;31;20757;-71
2022/04/08 10:00:08;;;;;;;0.70;0.57;;;;;;;17.11;29.77;99176.34;4501591;31;20162;-71
2022/04/08 10:02:40;;;;;;;4.50;0.60;;;;;;;16.86;30.22;99179.53;4501498;31;20103;-71
2022/04/08 10:05:09;;;;;;;2.35;0.50;;;;;;;16.75;30.20;99187.28;4511266;31;20178;-72
2022/04/08 10:07:38;;;;;;;1.67;0.52;;;;;;;17.05;29.70;99199.78;4517277;31;20158;-70
2022/04/08 10:10:26;;;;;;;7.57;0.45;;;;;;;17.15;29.61;99167.22;4517405;31;20099;-71
2022/04/08 10:13:12;;;;;;;2.70;0.65;;;;;;;17.48;29.46;99170.63;4511686;31;20084;-70
2022/04/08 10:16:16;;;;;;;2.62;0.70;;;;;;;17.16;30.26;99182.22;4511432;31;20138;-70
2022/04/08 10:18:45;;;;;;;1.00;0.32;;;;;;;17.46;29.39;99165.41;4492967;31;20091;-71
2022/04/08 10:21:13;;;;;;;4.97;0.50;;;;;;;17.43;29.58;99189.56;4511757;31;20109;-71
2022/04/08 10:23:48;;;;;;;2.92;0.68;;;;;;;17.41;29.44;99197.62;4509049;31;20079;-72
2022/04/08 10:26:24;;;;;;;1.75;0.50;;;;;;;17.52;29.53;99177.50;4512031;31;20168;-71
2022/04/08 10:28:53;;;;;;;4.97;0.57;;;;;;;17.95;28.64;99183.81;4506078;31;20099;-71
2022/04/08 10:31:23;;;;;;;1.65;0.47;;;;;;;17.68;28.70;99181.81;4506153;31;20162;-71
2022/04/08 10:34:01;;;;;;;2.72;0.57;;;;;;;17.82;29.18;99190.81;4510864;31;20147;-71
2022/04/08 10:36:31;;;;;;;0.77;0.50;;;;;;;17.61;28.86;99190.28;4515959;31;20126;-71
2022/04/08 10:39:16;;;;;;;0.98;0.70;;;;;;;17.41;30.05;99184.31;4516440;31;20083;-71
2022/04/08 10:41:56;;;;;;;1.20;0.50;;;;;;;17.21;29.42;99189.97;4516621;31;20125;-70
2022/04/08 10:44:36;;;;;;;2.53;0.37;;;;;;;17.49;28.42;99186.53;4504922;31;20084;-71
2022/04/08 10:47:14;;;;;;;13.18;0.57;;;;;;;17.49;28.47;99194.53;4500690;31;20088;-70
2022/04/08 10:50:04;;;;;;;0.52;0.50;;;;;;;17.31;28.62;99196.44;4502369;31;20079;-70
2022/04/08 10:52:40;;;;;;;0.30;0.30;;;;;;;17.15;29.01;99196.50;4496871;31;20175;-71
2022/04/08 10:55:10;;;;;;;1.45;0.43;;;;;;;17.30;27.92;99196.53;4510076;31;20111;-71
2022/04/08 10:57:48;;;;;;;1.17;0.50;;;;;;;17.30;27.87;99189.41;4510442;31;20133;-71
2022/04/08 11:00:18;;;;;;;2.72;0.50;;;;;;;17.94;27.84;99206.06;4515042;31;20118;-71
2022/04/08 11:02:48;;;;;;;2.28;0.40;;;;;;;18.28;27.54;99212.84;4507898;31;21014;-71
2022/04/08 11:05:16;;;;;;;2.97;0.60;;;;;;;18.02;27.26;99195.81;4511629;31;20095;-71
2022/04/08 11:07:45;;;;;;;5.47;0.80;;;;;;;18.11;27.03;99213.88;4517535;31;20742;-70
2022/04/08 11:10:15;;;;;;;1.83;0.40;;;;;;;17.74;27.83;99198.38;4517507;31;20166;-70
2022/04/08 11:12:47;;;;;;;4.87;1.00;;;;;;;18.48;26.99;99203.59;4517871;31;20095;-71
2022/04/08 11:15:19;;;;;;;2.75;0.50;;;;;;;19.09;26.30;99199.66;4518209;31;20732;-71
2022/04/08 11:17:47;;;;;;;2.92;0.77;;;;;;;18.61;27.12;99207.19;4509540;31;20099;-70
2022/04/08 11:20:17;;;;;;;5.18;0.90;;;;;;;18.01;28.70;99204.72;4510433;31;20135;-71
2022/04/08 11:22:47;;;;;;;3.20;0.73;;;;;;;18.06;28.57;99205.31;4511776;31;20115;-70
2022/04/08 11:25:28;;;;;;;1.02;0.60;;;;;;;18.04;28.69;99215.19;4513181;31;20135;-70
2022/04/08 11:27:59;;;;;;;2.10;0.65;;;;;;;17.65;29.64;99211.31;4508293;31;20516;-71
2022/04/08 11:30:28;;;;;;;2.75;0.82;;;;;;;18.27;29.72;99202.25;4505282;31;20863;-71
2022/04/08 11:32:55;;;;;;;3.05;0.77;;;;;;;19.29;28.16;99211.72;4506402;31;20622;-71
2022/04/08 11:35:26;;;;;;;1.33;0.60;;;;;;;19.36;27.44;99204.12;4507479;31;20099;-70
2022/04/08 11:37:53;;;;;;;2.67;1.10;;;;;;;19.03;27.98;99208.06;4507925;31;20163;-70
2022/04/08 11:40:20;;;;;;;2.40;1.00;;;;;;;18.87;28.27;99229.56;4501085;31;20160;-71
2022/04/08 11:42:48;;;;;;;6.25;1.85;;;;;;;19.14;28.42;99203.84;4514734;31;20189;-70